Randolph Air Force Base
KRND : now visible

Airfield :











YOU CAN JOIN US ON...

 
LOGIN :

Register | Disclaimer

   EN    FR    IT 

 









Legend :    VFR   Marginal VFR   IFR   Intensive IFR   Very Intensive IFR
Visi :
Ceiling :
>= 8 km
>= 3000ft
5 to 8 km
1000 to 3000 ft
1500m to 5 km
500 to 1000 ft
800 to 1500m
200 to 500 ft
< 800m
< 200 ft
Symbols :   Thunderstorms  Fog  Heavy snow  Heavy precipitations  Wind > 20 kt






- Airport Elevation : 761 ft


KRND - Randolph Air Force Base

EXPIRED METARs :
  • 282055Z AUTO 06017G24KT 10SM FEW200 33/20 A2993 RMK AO2 SLP126 T03320200 57026 $
  • 281955Z AUTO 07016KT 10SM FEW180 FEW200 33/19 A2996 RMK AO2 SLP136 T03270192 $

TAF AMD TAF KRND
Valid from the 28 at 19:00 until the 29 at 22:00 UTC


281912Z 2819/2922 05015G25KT 9999 SCT030 SCT250 QNH2982INS
BECMG 2823/2824 12015G25KT 9999 VCTS SCT015CB SCT025 OVC090 QNH2981INS
TEMPO 2902/2908 VRB35G50KT 1600 +TSRAGR BKN010CB OVC020
BECMG 2907/2908 13007KT 8000 BR VCSH OVC005 QNH2994INS
BECMG 2915/2916 18012KT 9000 BR BKN018 OVC026 QNH2996INS
BECMG 2917/2918 17012G18KT 9999 NSW SCT030 SCT050 QNH2986INS TX35/2821Z TN23/2912Z LAST NO AMDS AFT 2900 NEXT 2910
KZHU FIR / North America



MET'MAP, your aeronautical weather chart ! - Copyright ORBIFLY December 2007 - Disclaimer

ORBIFLY MET'MAP TEAM :

Programming & Development : Alexandra Zaïnal
Original concept : Baudouin d'Aumeries
Technical & hardware support : Manuel Goepfert
Assistance : Marc-Olivier Méhu




SOURCES & CREDITS :

   NOAA       Earth
Advisory